createdAt,value
2023-12-22T00:01:29.320Z,2.50
2023-12-22T00:03:59.211Z,2.50
2023-12-22T00:06:29.136Z,2.50
2023-12-22T00:08:58.242Z,2.60
2023-12-22T00:11:26.557Z,2.70
2023-12-22T00:16:20.512Z,2.80
2023-12-22T00:18:47.470Z,2.80
2023-12-22T00:23:41.546Z,2.90
2023-12-22T00:28:35.461Z,3.00
2023-12-22T00:31:02.259Z,3.10
2023-12-22T00:33:29.054Z,3.20
2023-12-22T00:35:55.800Z,3.20
2023-12-22T00:38:22.664Z,3.20
2023-12-22T00:40:49.462Z,3.20
2023-12-22T00:43:16.307Z,3.20
2023-12-22T00:50:37.541Z,3.30
2023-12-22T00:53:04.528Z,3.20
2023-12-22T00:55:31.305Z,3.30
2023-12-22T00:57:58.052Z,3.20
2023-12-22T01:00:24.861Z,3.20
2023-12-22T01:02:51.768Z,3.10
2023-12-22T01:05:18.793Z,3.00
2023-12-22T01:07:45.939Z,3.00
2023-12-22T01:10:15.395Z,2.90
2023-12-22T01:12:42.205Z,3.00
2023-12-22T01:15:09.489Z,2.90
2023-12-22T01:17:36.382Z,2.90
2023-12-22T01:20:03.746Z,2.90
2023-12-22T01:22:35.954Z,2.90
2023-12-22T01:25:03.059Z,2.90
2023-12-22T01:27:29.808Z,2.90
2023-12-22T01:29:56.512Z,2.90
2023-12-22T01:32:23.213Z,2.90
2023-12-22T01:34:49.989Z,2.90
2023-12-22T01:37:16.772Z,2.90
2023-12-22T01:39:43.601Z,2.90
2023-12-22T01:42:10.563Z,2.90
2023-12-22T01:44:37.288Z,2.80
2023-12-22T01:47:04.260Z,2.80
2023-12-22T01:49:31.175Z,2.70
2023-12-22T01:51:58.023Z,2.60
2023-12-22T01:56:51.908Z,2.20
2023-12-22T01:59:18.653Z,2.00
2023-12-22T02:01:47.224Z,2.00
2023-12-22T02:04:15.439Z,2.00
2023-12-22T02:06:42.441Z,2.00
2023-12-22T02:09:09.375Z,2.00
2023-12-22T02:14:03.431Z,2.00
2023-12-22T02:16:35.971Z,2.00
2023-12-22T02:19:11.224Z,2.00
2023-12-22T02:21:39.446Z,2.00
2023-12-22T02:24:06.772Z,2.00
2023-12-22T02:26:40.289Z,2.00
2023-12-22T02:29:07.124Z,2.00
2023-12-22T02:31:34.057Z,2.00
2023-12-22T02:34:00.868Z,2.00
2023-12-22T02:36:27.793Z,2.00
2023-12-22T02:38:55.977Z,2.00
2023-12-22T02:43:50.237Z,2.10
2023-12-22T02:48:44.276Z,2.10
2023-12-22T02:51:11.012Z,2.20
2023-12-22T02:53:37.750Z,2.20
2023-12-22T02:56:04.803Z,2.20
2023-12-22T02:58:31.629Z,2.20
2023-12-22T03:00:58.427Z,2.30
2023-12-22T03:03:25.341Z,2.30
2023-12-22T03:05:52.123Z,2.30
2023-12-22T03:08:21.871Z,2.30
2023-12-22T03:10:48.683Z,2.30
2023-12-22T03:13:15.609Z,2.40
2023-12-22T03:15:42.499Z,1.50
2023-12-22T03:18:09.398Z,2.40
2023-12-22T03:20:36.172Z,2.40
2023-12-22T03:23:03.056Z,2.50
2023-12-22T03:30:24.540Z,2.50
2023-12-22T03:32:51.491Z,2.60
2023-12-22T03:35:18.408Z,2.70
2023-12-22T03:37:45.341Z,2.90
2023-12-22T03:40:14.519Z,3.40
2023-12-22T03:42:41.419Z,3.80
2023-12-22T03:45:08.594Z,4.20
2023-12-22T03:47:35.410Z,4.50
2023-12-22T03:50:02.305Z,4.70
2023-12-22T03:54:56.321Z,5.00
2023-12-22T03:57:23.188Z,5.00
2023-12-22T03:59:49.981Z,5.20
2023-12-22T04:02:16.949Z,5.10
2023-12-22T04:04:43.861Z,5.30
2023-12-22T04:07:10.738Z,5.30
2023-12-22T04:09:39.753Z,5.20
2023-12-22T04:12:06.723Z,5.30
2023-12-22T04:14:33.448Z,5.30
2023-12-22T04:17:00.267Z,5.30
2023-12-22T04:21:54.506Z,5.30
2023-12-22T04:24:21.300Z,5.30
2023-12-22T04:26:48.142Z,5.30
2023-12-22T04:29:15.256Z,5.40
2023-12-22T04:34:09.305Z,5.40
2023-12-22T04:36:36.768Z,5.50
2023-12-22T04:39:03.690Z,5.50
2023-12-22T04:41:30.410Z,5.40
2023-12-22T04:43:57.252Z,5.50
2023-12-22T04:51:18.629Z,5.70
2023-12-22T04:53:45.491Z,6.00
2023-12-22T05:03:34.260Z,6.00
2023-12-22T05:10:55.656Z,6.00
2023-12-22T05:13:23.181Z,6.10
2023-12-22T05:15:49.986Z,5.90
2023-12-22T05:20:44.885Z,6.10
2023-12-22T05:23:12.002Z,5.90
2023-12-22T05:25:38.857Z,5.40
2023-12-22T05:28:05.645Z,5.00
2023-12-22T05:30:32.506Z,4.80
2023-12-22T05:35:28.818Z,4.60
2023-12-22T05:37:57.812Z,4.50
2023-12-22T05:40:24.672Z,4.40
2023-12-22T05:42:51.501Z,4.40
2023-12-22T05:47:46.647Z,4.20
2023-12-22T05:50:14.839Z,4.20
2023-12-22T05:55:10.170Z,4.20
2023-12-22T06:02:51.345Z,4.20
2023-12-22T06:05:23.348Z,4.20
2023-12-22T06:07:50.382Z,4.20
2023-12-22T06:20:07.798Z,4.50
2023-12-22T06:22:34.628Z,4.60
2023-12-22T06:25:02.220Z,4.70
2023-12-22T06:27:28.968Z,4.70
2023-12-22T06:29:57.004Z,4.90
2023-12-22T06:34:51.445Z,5.00
2023-12-22T06:37:18.233Z,5.10
2023-12-22T06:39:44.996Z,5.20
2023-12-22T06:42:13.333Z,5.50
2023-12-22T06:44:42.588Z,5.60
2023-12-22T06:47:09.420Z,5.50
2023-12-22T06:49:36.464Z,5.40
2023-12-22T06:52:03.414Z,5.30
2023-12-22T06:54:31.180Z,5.20
2023-12-22T06:59:26.051Z,5.10
2023-12-22T07:02:02.015Z,4.90
2023-12-22T07:05:05.551Z,4.70
2023-12-22T07:07:33.631Z,4.60
2023-12-22T07:10:02.232Z,4.50
2023-12-22T07:12:29.151Z,4.50
2023-12-22T07:14:55.991Z,4.50
2023-12-22T07:17:22.893Z,4.50
2023-12-22T07:19:53.139Z,4.50
2023-12-22T07:22:20.047Z,4.60
2023-12-22T07:24:47.401Z,4.60
2023-12-22T07:27:14.194Z,4.80
2023-12-22T07:29:41.128Z,5.20
2023-12-22T07:32:07.986Z,5.20
2023-12-22T07:34:37.802Z,5.20
2023-12-22T07:37:07.538Z,4.50
2023-12-22T07:39:36.996Z,4.40
2023-12-22T07:42:05.234Z,4.70
2023-12-22T07:44:33.805Z,4.80
2023-12-22T07:47:02.514Z,4.80
2023-12-22T07:49:31.148Z,5.00
2023-12-22T07:51:59.110Z,5.10
2023-12-22T07:54:27.124Z,5.10
2023-12-22T07:56:53.899Z,5.10
2023-12-22T07:59:29.557Z,5.00
2023-12-22T08:04:25.465Z,5.00
2023-12-22T08:06:53.400Z,4.90
2023-12-22T08:09:20.426Z,5.00
2023-12-22T08:11:53.677Z,5.00
2023-12-22T08:14:20.786Z,4.90
2023-12-22T08:16:47.529Z,4.90
2023-12-22T08:19:14.546Z,5.00
2023-12-22T08:21:45.846Z,5.00
2023-12-22T08:24:19.570Z,5.50
2023-12-22T08:26:50.462Z,5.50
2023-12-22T08:29:17.594Z,5.60
2023-12-22T08:31:47.092Z,5.70
2023-12-22T08:34:13.926Z,5.80
2023-12-22T08:36:40.864Z,5.80
2023-12-22T08:39:09.197Z,5.90
2023-12-22T08:41:38.480Z,5.90
2023-12-22T08:44:06.658Z,6.00
2023-12-22T08:46:33.883Z,5.90
2023-12-22T08:49:01.049Z,5.90
2023-12-22T08:51:28.057Z,5.80
2023-12-22T08:53:56.065Z,5.90
2023-12-22T08:56:26.101Z,5.90
2023-12-22T08:58:53.399Z,5.80
2023-12-22T09:01:20.584Z,5.80
2023-12-22T09:03:47.828Z,5.80
2023-12-22T09:06:18.723Z,5.70
2023-12-22T09:08:48.404Z,5.80
2023-12-22T09:11:17.656Z,5.80
2023-12-22T09:13:44.795Z,5.80
2023-12-22T09:16:11.546Z,5.80
2023-12-22T09:18:38.477Z,5.80
2023-12-22T09:21:05.313Z,5.70
2023-12-22T09:23:32.890Z,5.70
2023-12-22T09:25:59.897Z,5.70
2023-12-22T09:28:26.848Z,5.60
2023-12-22T09:30:53.789Z,5.60
2023-12-22T09:33:20.729Z,5.60
2023-12-22T09:35:47.463Z,5.50
2023-12-22T09:38:14.420Z,5.30
2023-12-22T09:40:41.318Z,5.00
2023-12-22T09:43:08.245Z,5.00
2023-12-22T09:45:34.979Z,4.90
2023-12-22T09:48:02.323Z,4.70
2023-12-22T09:50:29.344Z,4.70
2023-12-22T09:52:56.112Z,4.70
2023-12-22T09:55:22.923Z,4.70
2023-12-22T09:57:53.010Z,4.60
2023-12-22T10:00:19.906Z,4.60
2023-12-22T10:02:46.999Z,4.60
2023-12-22T10:05:14.548Z,4.60
2023-12-22T10:07:42.796Z,4.60
2023-12-22T10:10:10.647Z,4.60
2023-12-22T10:12:37.463Z,4.60
2023-12-22T10:15:04.714Z,4.60
2023-12-22T10:17:31.555Z,4.60
2023-12-22T10:19:58.472Z,4.60
2023-12-22T10:22:25.406Z,4.60
2023-12-22T10:24:52.239Z,4.60
2023-12-22T10:27:25.414Z,4.70
2023-12-22T10:29:56.008Z,4.80
2023-12-22T10:34:53.970Z,5.00
2023-12-22T10:37:22.613Z,5.20
2023-12-22T10:39:50.217Z,5.20
2023-12-22T10:42:17.005Z,5.30
2023-12-22T10:44:44.249Z,5.30
2023-12-22T10:47:11.022Z,5.30
2023-12-22T10:49:37.963Z,5.40
2023-12-22T10:52:05.262Z,5.40
2023-12-22T10:54:32.189Z,5.50
2023-12-22T10:57:02.028Z,5.40
2023-12-22T10:59:32.310Z,5.40
2023-12-22T11:01:59.903Z,5.50
2023-12-22T11:04:34.426Z,5.50
2023-12-22T11:07:01.309Z,5.50
2023-12-22T11:09:28.021Z,5.50
2023-12-22T11:11:54.844Z,5.50
2023-12-22T11:14:21.627Z,5.60
2023-12-22T11:16:49.905Z,5.60
2023-12-22T11:19:17.046Z,5.60
2023-12-22T11:21:44.340Z,5.60
2023-12-22T11:24:11.036Z,5.60
2023-12-22T11:26:37.797Z,5.70
2023-12-22T11:29:04.719Z,5.70
2023-12-22T11:31:32.649Z,5.70
2023-12-22T11:34:09.233Z,5.70
2023-12-22T11:36:39.174Z,5.80
2023-12-22T11:39:05.902Z,5.80
2023-12-22T11:41:34.711Z,5.80
2023-12-22T11:44:01.557Z,5.70
2023-12-22T11:46:28.369Z,5.70
2023-12-22T11:48:56.857Z,5.70
2023-12-22T11:51:23.806Z,5.70
2023-12-22T11:53:50.545Z,5.80
2023-12-22T11:56:19.679Z,5.80
2023-12-22T11:59:00.054Z,5.80
2023-12-22T12:01:27.299Z,5.80
2023-12-22T12:03:57.734Z,5.80
2023-12-22T12:06:27.403Z,5.80
2023-12-22T12:11:22.351Z,5.70
2023-12-22T12:13:49.559Z,5.70
2023-12-22T12:16:20.591Z,5.70
2023-12-22T12:18:47.340Z,5.70
2023-12-22T12:21:14.141Z,5.70
2023-12-22T12:23:42.091Z,5.70
2023-12-22T12:26:09.510Z,5.70
2023-12-22T12:28:37.153Z,5.70
2023-12-22T12:31:05.624Z,5.70
2023-12-22T12:33:32.813Z,5.70
2023-12-22T12:36:01.640Z,5.70
2023-12-22T12:38:50.351Z,5.70
2023-12-22T12:43:44.769Z,5.80
2023-12-22T12:46:12.267Z,5.80
2023-12-22T12:48:41.566Z,5.70
2023-12-22T12:51:08.730Z,5.70
2023-12-22T12:53:35.570Z,5.80
2023-12-22T12:56:02.408Z,5.80
2023-12-22T12:58:33.251Z,5.80
2023-12-22T13:01:08.169Z,5.80
2023-12-22T13:03:35.259Z,5.70
2023-12-22T13:06:11.498Z,5.70
2023-12-22T13:08:45.362Z,5.60
2023-12-22T13:11:12.614Z,5.60
2023-12-22T13:13:45.778Z,5.60
2023-12-22T13:16:12.791Z,5.60
2023-12-22T13:18:39.616Z,5.60
2023-12-22T13:21:06.475Z,5.60
2023-12-22T13:23:34.869Z,5.60
2023-12-22T13:26:01.857Z,5.60
2023-12-22T13:28:31.957Z,5.60
2023-12-22T13:30:58.669Z,5.60
2023-12-22T13:33:30.337Z,5.70
2023-12-22T13:35:59.860Z,5.60
2023-12-22T13:40:53.880Z,5.60
2023-12-22T13:43:20.731Z,5.60
2023-12-22T13:45:50.901Z,5.60
2023-12-22T13:48:17.845Z,5.60
2023-12-22T13:50:47.399Z,5.60
2023-12-22T13:53:14.171Z,5.70
2023-12-22T13:55:43.835Z,5.70
2023-12-22T13:58:12.990Z,5.80
2023-12-22T14:00:42.165Z,5.80
2023-12-22T14:05:36.647Z,6.00
2023-12-22T14:08:05.383Z,5.90
2023-12-22T14:10:32.491Z,6.00
2023-12-22T14:12:59.310Z,6.00
2023-12-22T14:15:37.219Z,6.00
2023-12-22T14:18:09.329Z,6.00
2023-12-22T14:20:36.240Z,6.00
2023-12-22T14:23:03.431Z,6.00
2023-12-22T14:25:30.271Z,6.00
2023-12-22T14:27:58.499Z,6.00
2023-12-22T14:30:25.190Z,6.10
2023-12-22T14:32:51.961Z,6.10
2023-12-22T14:35:18.840Z,6.10
2023-12-22T14:37:47.532Z,6.10
2023-12-22T14:40:14.548Z,6.20
2023-12-22T14:42:41.258Z,6.20
2023-12-22T14:45:08.294Z,6.20
2023-12-22T14:47:36.250Z,6.20
2023-12-22T14:50:06.621Z,6.30
2023-12-22T14:52:33.551Z,6.20
2023-12-22T14:55:00.834Z,6.20
2023-12-22T14:57:29.906Z,6.20
2023-12-22T14:59:56.886Z,6.20
2023-12-22T15:04:51.263Z,6.30
2023-12-22T15:07:21.280Z,6.30
2023-12-22T15:09:49.684Z,6.40
2023-12-22T15:12:16.940Z,6.40
2023-12-22T15:14:47.248Z,6.40
2023-12-22T15:17:14.197Z,6.40
2023-12-22T15:19:44.220Z,6.40
2023-12-22T15:22:14.515Z,6.40
2023-12-22T15:27:11.704Z,6.50
2023-12-22T15:29:38.382Z,6.50
2023-12-22T15:32:05.380Z,6.60
2023-12-22T15:34:32.315Z,6.50
2023-12-22T15:36:59.041Z,6.60
2023-12-22T15:39:25.711Z,6.50
2023-12-22T15:41:52.485Z,6.60
2023-12-22T15:44:19.376Z,6.60
2023-12-22T15:46:46.184Z,6.60
2023-12-22T15:49:12.997Z,6.70
2023-12-22T15:51:39.776Z,5.90
2023-12-22T15:54:06.584Z,6.80
2023-12-22T15:56:33.366Z,6.70
2023-12-22T15:59:00.109Z,6.80
2023-12-22T16:01:27.090Z,6.70
2023-12-22T16:03:53.929Z,6.80
2023-12-22T16:06:20.985Z,6.90
2023-12-22T16:08:47.862Z,6.80
2023-12-22T16:11:14.726Z,6.90
2023-12-22T16:16:20.484Z,6.80
2023-12-22T16:21:14.856Z,6.90
2023-12-22T16:23:41.566Z,6.90
2023-12-22T16:26:08.763Z,7.00
2023-12-22T16:28:35.887Z,7.00
2023-12-22T16:31:03.080Z,6.90
2023-12-22T16:35:57.332Z,6.90
2023-12-22T16:38:24.122Z,6.90
2023-12-22T16:40:50.841Z,6.90
2023-12-22T16:43:17.551Z,6.80
2023-12-22T16:45:44.550Z,6.90
2023-12-22T16:48:11.540Z,6.90
2023-12-22T16:50:38.329Z,7.00
2023-12-22T16:53:05.238Z,7.00
2023-12-22T16:55:32.266Z,7.00
2023-12-22T16:57:59.088Z,7.00
2023-12-22T17:05:22.525Z,7.00
2023-12-22T17:10:17.550Z,7.00
2023-12-22T17:12:44.240Z,7.00
2023-12-22T17:15:11.753Z,7.10
2023-12-22T17:17:39.118Z,7.10
2023-12-22T17:20:07.860Z,7.10
2023-12-22T17:22:34.874Z,7.20
2023-12-22T17:25:01.854Z,7.10
2023-12-22T17:27:28.727Z,7.10
2023-12-22T17:29:55.597Z,7.20
2023-12-22T17:32:22.280Z,7.20
2023-12-22T17:34:49.020Z,7.20
2023-12-22T17:37:15.816Z,7.20
2023-12-22T17:42:12.832Z,7.20
2023-12-22T17:44:39.563Z,7.30
2023-12-22T17:47:06.641Z,7.30
2023-12-22T17:49:34.814Z,7.20
2023-12-22T17:52:01.528Z,7.20
2023-12-22T17:54:28.369Z,7.20
2023-12-22T17:56:55.229Z,7.30
2023-12-22T17:59:22.210Z,7.30
2023-12-22T18:01:50.673Z,7.40
2023-12-22T18:04:17.782Z,7.30
2023-12-22T18:06:44.573Z,7.30
2023-12-22T18:09:11.920Z,7.20
2023-12-22T18:11:45.291Z,7.20
2023-12-22T18:14:12.042Z,7.20
2023-12-22T18:16:42.358Z,7.10
2023-12-22T18:19:09.906Z,7.10
2023-12-22T18:21:36.873Z,7.10
2023-12-22T18:24:04.169Z,7.10
2023-12-22T18:26:30.985Z,7.10
2023-12-22T18:28:57.838Z,7.10
2023-12-22T18:31:24.545Z,7.10
2023-12-22T18:33:51.395Z,7.10
2023-12-22T18:36:18.132Z,7.10
2023-12-22T18:38:44.897Z,7.10
2023-12-22T18:41:12.132Z,7.20
2023-12-22T18:43:39.610Z,7.10
2023-12-22T18:46:07.228Z,7.20
2023-12-22T18:48:34.227Z,7.20
2023-12-22T18:51:01.208Z,7.20
2023-12-22T18:53:28.012Z,7.20
2023-12-22T18:55:54.943Z,7.20
2023-12-22T18:58:21.828Z,7.10
2023-12-22T19:00:48.670Z,7.10
2023-12-22T19:03:15.731Z,7.10
2023-12-22T19:05:43.016Z,7.10
2023-12-22T19:08:10.922Z,7.20
2023-12-22T19:10:37.671Z,7.10
2023-12-22T19:15:31.971Z,7.20
2023-12-22T19:18:00.450Z,7.20
2023-12-22T19:20:27.371Z,7.10
2023-12-22T19:22:54.363Z,7.10
2023-12-22T19:25:21.112Z,7.20
2023-12-22T19:27:48.948Z,7.10
2023-12-22T19:30:17.085Z,7.10
2023-12-22T19:32:46.409Z,7.10
2023-12-22T19:35:13.759Z,7.10
2023-12-22T19:37:40.753Z,7.10
2023-12-22T19:40:08.466Z,7.10
2023-12-22T19:45:05.409Z,7.10
2023-12-22T19:47:32.147Z,7.10
2023-12-22T19:49:59.203Z,7.10
2023-12-22T19:52:26.100Z,7.20
2023-12-22T19:54:52.813Z,7.30
2023-12-22T19:57:19.544Z,7.30
2023-12-22T19:59:46.253Z,7.20
2023-12-22T20:02:13.105Z,7.10
2023-12-22T20:04:39.980Z,7.20
2023-12-22T20:07:06.913Z,7.20
2023-12-22T20:12:01.892Z,7.30
2023-12-22T20:14:28.954Z,7.30
2023-12-22T20:16:55.798Z,7.30
2023-12-22T20:19:23.093Z,7.30
2023-12-22T20:21:49.968Z,7.30
2023-12-22T20:24:16.934Z,7.30
2023-12-22T20:26:44.138Z,7.20
2023-12-22T20:29:11.053Z,7.30
2023-12-22T20:31:38.646Z,7.20
2023-12-22T20:34:05.798Z,7.20
2023-12-22T20:36:32.630Z,7.20
2023-12-22T20:38:59.489Z,7.30
2023-12-22T20:41:26.250Z,7.10
2023-12-22T20:43:53.124Z,7.10
2023-12-22T20:46:20.432Z,7.00
2023-12-22T20:48:47.646Z,7.00
2023-12-22T20:51:14.718Z,7.10
2023-12-22T20:53:41.463Z,7.00
2023-12-22T20:56:21.288Z,7.10
2023-12-22T21:01:18.970Z,7.00
2023-12-22T21:03:45.933Z,7.00
2023-12-22T21:08:40.166Z,7.00
2023-12-22T21:11:08.384Z,7.00
2023-12-22T21:13:35.495Z,7.00
2023-12-22T21:16:06.671Z,7.00
2023-12-22T21:18:34.120Z,7.00
2023-12-22T21:21:05.411Z,7.00
2023-12-22T21:26:00.033Z,7.00
2023-12-22T21:28:27.113Z,7.10
2023-12-22T21:30:54.279Z,7.10
2023-12-22T21:33:21.146Z,7.10
2023-12-22T21:35:48.052Z,7.10
2023-12-22T21:38:14.879Z,7.20
2023-12-22T21:40:41.787Z,7.10
2023-12-22T21:43:08.575Z,7.10
2023-12-22T21:48:03.760Z,7.10
2023-12-22T21:50:30.676Z,7.10
2023-12-22T21:52:59.323Z,7.10
2023-12-22T21:55:26.134Z,7.10
2023-12-22T21:57:53.336Z,7.00
2023-12-22T22:00:20.684Z,7.10
2023-12-22T22:02:47.479Z,7.00
2023-12-22T22:05:14.376Z,7.00
2023-12-22T22:07:41.257Z,7.00
2023-12-22T22:10:08.567Z,7.00
2023-12-22T22:17:31.152Z,7.00
2023-12-22T22:19:58.138Z,6.90
2023-12-22T22:22:25.023Z,7.00
2023-12-22T22:24:51.761Z,7.00
2023-12-22T22:27:18.664Z,6.90
2023-12-22T22:29:46.260Z,7.00
2023-12-22T22:32:13.233Z,6.90
2023-12-22T22:34:41.438Z,6.90
2023-12-22T22:37:09.265Z,6.90
2023-12-22T22:39:38.993Z,6.90
2023-12-22T22:42:05.869Z,6.90
2023-12-22T22:44:32.751Z,7.00
2023-12-22T22:46:59.609Z,6.90
2023-12-22T22:49:26.423Z,7.00
2023-12-22T22:51:53.443Z,7.00
2023-12-22T22:56:47.349Z,6.90
2023-12-22T22:59:14.124Z,6.90
2023-12-22T23:01:40.946Z,6.90
2023-12-22T23:04:07.711Z,6.90
2023-12-22T23:06:34.518Z,6.90
2023-12-22T23:09:01.345Z,6.90
2023-12-22T23:11:28.309Z,6.90
2023-12-22T23:13:55.211Z,6.90
2023-12-22T23:16:21.969Z,6.80
2023-12-22T23:18:48.810Z,6.90
2023-12-22T23:21:15.580Z,6.90
2023-12-22T23:23:42.557Z,6.90
2023-12-22T23:26:09.403Z,6.90
2023-12-22T23:31:03.878Z,6.90
2023-12-22T23:33:30.797Z,6.90
2023-12-22T23:35:58.983Z,6.80
2023-12-22T23:38:26.898Z,6.80
2023-12-22T23:43:20.944Z,6.90
2023-12-22T23:45:47.643Z,6.90
2023-12-22T23:48:14.446Z,6.90
2023-12-22T23:50:41.373Z,6.90
2023-12-22T23:53:08.123Z,6.90
2023-12-22T23:55:35.625Z,6.90
2023-12-22T23:58:02.420Z,6.90
